createdAt,value
2018-02-12T00:00:13.681Z,40.85
2018-02-12T00:01:14.149Z,40.84
2018-02-12T00:02:14.618Z,40.79
2018-02-12T00:03:15.136Z,40.72
2018-02-12T00:04:15.552Z,40.67
2018-02-12T00:05:16.019Z,40.62
2018-02-12T00:06:16.487Z,40.56
2018-02-12T00:07:16.956Z,40.49
2018-02-12T00:08:17.419Z,40.49
2018-02-12T00:09:17.891Z,40.43
2018-02-12T00:10:18.358Z,40.38
2018-02-12T00:11:18.824Z,40.32
2018-02-12T00:12:19.292Z,40.26
2018-02-12T00:13:19.810Z,40.24
2018-02-12T00:14:20.230Z,40.22
2018-02-12T00:15:20.693Z,40.18
2018-02-12T00:16:21.163Z,40.12
2018-02-12T00:17:21.629Z,40.08
2018-02-12T00:19:22.561Z,40.01
2018-02-12T00:20:23.032Z,39.95
2018-02-12T00:21:23.498Z,39.94
2018-02-12T00:22:23.969Z,39.96
2018-02-12T00:23:36.373Z,39.94
2018-02-12T00:24:24.903Z,39.89
2018-02-12T00:25:25.368Z,39.87
2018-02-12T00:26:25.831Z,39.87
2018-02-12T00:27:26.304Z,39.87
2018-02-12T00:28:38.406Z,39.85
2018-02-12T00:30:27.702Z,39.87
2018-02-12T00:31:28.177Z,39.88
2018-02-12T00:32:28.642Z,39.90
2018-02-12T00:33:29.108Z,39.87
2018-02-12T00:34:29.574Z,39.84
2018-02-12T00:35:30.043Z,39.85
2018-02-12T00:36:30.511Z,39.85
2018-02-12T00:37:30.972Z,39.88
2018-02-12T00:38:31.445Z,39.89
2018-02-12T00:40:32.379Z,39.86
2018-02-12T00:41:32.845Z,39.86
2018-02-12T00:43:45.418Z,39.78
2018-02-12T00:44:34.248Z,39.75
2018-02-12T00:45:34.714Z,39.70
2018-02-12T00:46:35.181Z,39.66
2018-02-12T00:47:35.649Z,39.66
2018-02-12T00:48:36.112Z,39.63
2018-02-12T00:49:36.583Z,39.63
2018-02-12T00:50:37.050Z,39.62
2018-02-12T00:51:37.517Z,39.62
2018-02-12T00:52:37.987Z,39.62
2018-02-12T00:54:38.920Z,39.62
2018-02-12T00:55:39.388Z,39.64
2018-02-12T00:57:40.321Z,39.72
2018-02-12T00:58:40.788Z,39.73
2018-02-12T00:59:41.251Z,39.70
2018-02-12T01:00:41.723Z,39.71
2018-02-12T01:01:42.190Z,39.69
2018-02-12T01:02:42.656Z,39.69
2018-02-12T01:03:43.175Z,39.68
2018-02-12T01:04:43.591Z,39.66
2018-02-12T01:05:44.058Z,39.67
2018-02-12T01:06:44.524Z,39.68
2018-02-12T01:07:44.992Z,39.67
2018-02-12T01:09:45.925Z,39.71
2018-02-12T01:10:46.387Z,39.77
2018-02-12T01:11:46.860Z,39.84
2018-02-12T01:12:47.328Z,39.88
2018-02-12T01:13:47.845Z,39.91
2018-02-12T01:14:48.261Z,39.87
2018-02-12T01:15:48.728Z,39.87
2018-02-12T01:16:49.196Z,39.87
2018-02-12T01:17:49.659Z,39.93
2018-02-12T01:19:50.596Z,40.01
2018-02-12T01:20:51.064Z,40.03
2018-02-12T01:21:51.525Z,40.04
2018-02-12T01:22:51.996Z,40.04
2018-02-12T01:23:52.465Z,40.04
2018-02-12T01:24:52.931Z,40.03
2018-02-12T01:25:53.399Z,40.03
2018-02-12T01:26:53.866Z,40.02
2018-02-12T01:27:54.331Z,40.00
2018-02-12T01:28:54.794Z,39.98
2018-02-12T01:29:55.266Z,39.97
2018-02-12T01:30:55.734Z,39.94
2018-02-12T01:31:56.201Z,39.95
2018-02-12T01:32:56.667Z,39.99
2018-02-12T01:33:57.133Z,40.03
2018-02-12T01:34:57.601Z,40.03
2018-02-12T01:36:58.536Z,39.97
2018-02-12T01:37:59.001Z,39.98
2018-02-12T01:38:59.521Z,39.99
2018-02-12T01:39:59.931Z,39.96
2018-02-12T01:42:00.869Z,39.93
2018-02-12T01:43:01.335Z,39.90
2018-02-12T01:44:01.800Z,39.88
2018-02-12T01:45:02.271Z,39.87
2018-02-12T01:46:02.737Z,39.86
2018-02-12T01:47:03.204Z,39.90
2018-02-12T01:48:03.673Z,39.88
2018-02-12T01:49:04.139Z,39.83
2018-02-12T01:50:04.607Z,39.82
2018-02-12T01:51:05.068Z,39.80
2018-02-12T01:52:05.537Z,39.79
2018-02-12T01:53:06.209Z,39.74
2018-02-12T01:54:06.522Z,39.77
2018-02-12T01:55:06.938Z,39.79
2018-02-12T01:56:07.407Z,39.77
2018-02-12T01:57:07.876Z,39.74
2018-02-12T01:58:08.341Z,39.76
2018-02-12T02:00:09.273Z,39.75
2018-02-12T02:01:09.742Z,39.76
2018-02-12T02:02:10.203Z,39.75
2018-02-12T02:05:11.609Z,39.72
2018-02-12T02:06:12.078Z,39.72
2018-02-12T02:07:12.542Z,39.74
2018-02-12T02:08:13.210Z,39.73
2018-02-12T02:09:13.475Z,39.70
2018-02-12T02:11:14.409Z,39.72
2018-02-12T02:12:14.877Z,39.70
2018-02-12T02:13:15.338Z,39.67
2018-02-12T02:14:15.860Z,39.64
2018-02-12T02:15:16.277Z,39.61
2018-02-12T02:16:16.742Z,39.59
2018-02-12T02:17:17.411Z,39.58
2018-02-12T02:18:17.676Z,39.56
2018-02-12T02:19:18.146Z,39.55
2018-02-12T02:20:18.605Z,39.54
2018-02-12T02:21:19.076Z,39.49
2018-02-12T02:22:19.543Z,39.50
2018-02-12T02:23:20.009Z,39.48
2018-02-12T02:24:20.523Z,39.48
2018-02-12T02:26:21.409Z,39.50
2018-02-12T02:27:21.877Z,39.49
2018-02-12T02:28:22.348Z,39.45
2018-02-12T02:29:22.812Z,39.46
2018-02-12T02:30:23.276Z,39.46
2018-02-12T02:31:23.738Z,39.49
2018-02-12T02:32:24.211Z,39.52
2018-02-12T02:33:24.678Z,39.56
2018-02-12T02:34:25.193Z,39.58
2018-02-12T02:35:25.605Z,39.60
2018-02-12T02:36:26.077Z,39.57
2018-02-12T02:37:26.543Z,39.55
2018-02-12T02:38:27.010Z,39.53
2018-02-12T02:39:27.533Z,39.47
2018-02-12T02:40:27.943Z,39.42
2018-02-12T02:41:28.410Z,39.39
2018-02-12T02:42:28.873Z,39.36
2018-02-12T02:43:29.342Z,39.33
2018-02-12T02:44:29.859Z,39.33
2018-02-12T02:45:30.275Z,39.31
2018-02-12T02:46:30.737Z,39.29
2018-02-12T02:47:31.208Z,39.26
2018-02-12T02:48:31.676Z,39.22
2018-02-12T02:50:44.496Z,39.15
2018-02-12T02:51:33.076Z,39.13
2018-02-12T02:52:33.541Z,39.10
2018-02-12T02:53:34.005Z,39.08
2018-02-12T02:54:34.474Z,39.09
2018-02-12T02:55:34.940Z,39.04
2018-02-12T02:56:35.413Z,39.01
2018-02-12T02:57:35.875Z,38.97
2018-02-12T02:58:36.340Z,38.93
2018-02-12T02:59:36.806Z,38.92
2018-02-12T03:00:37.323Z,38.93
2018-02-12T03:01:37.740Z,38.90
2018-02-12T03:02:38.208Z,38.92
2018-02-12T03:04:39.134Z,38.95
2018-02-12T03:05:39.607Z,38.94
2018-02-12T03:07:40.538Z,38.94
2018-02-12T03:08:41.005Z,38.89
2018-02-12T03:09:41.473Z,38.95
2018-02-12T03:10:41.988Z,38.96
2018-02-12T03:11:42.402Z,38.96
2018-02-12T03:12:42.872Z,38.94
2018-02-12T03:14:43.804Z,39.02
2018-02-12T03:15:44.264Z,38.98
2018-02-12T03:16:44.939Z,39.02
2018-02-12T03:18:45.676Z,39.02
2018-02-12T03:19:46.133Z,38.94
2018-02-12T03:20:46.602Z,38.87
2018-02-12T03:21:47.067Z,38.86
2018-02-12T03:22:47.531Z,38.85
2018-02-12T03:23:47.999Z,38.85
2018-02-12T03:24:48.465Z,38.84
2018-02-12T03:25:48.982Z,38.83
2018-02-12T03:26:49.392Z,38.80
2018-02-12T03:27:49.862Z,38.78
2018-02-12T03:28:50.330Z,38.78
2018-02-12T03:29:50.797Z,38.79
2018-02-12T03:32:52.194Z,38.81
2018-02-12T03:33:52.656Z,38.79
2018-02-12T03:35:53.595Z,38.81
2018-02-12T03:36:54.059Z,38.79
2018-02-12T03:37:54.519Z,38.78
2018-02-12T03:38:54.991Z,38.77
2018-02-12T03:39:55.456Z,38.75
2018-02-12T03:40:55.972Z,38.75
2018-02-12T03:41:56.387Z,38.72
2018-02-12T03:42:56.856Z,38.71
2018-02-12T03:43:57.322Z,38.70
2018-02-12T03:44:57.782Z,38.68
2018-02-12T03:45:58.253Z,38.62
2018-02-12T03:46:58.719Z,38.62
2018-02-12T03:47:59.185Z,38.62
2018-02-12T03:48:59.647Z,38.59
2018-02-12T03:50:00.117Z,38.55
2018-02-12T03:51:00.631Z,38.54
2018-02-12T03:52:01.048Z,38.57
2018-02-12T03:53:01.514Z,38.58
2018-02-12T03:55:02.445Z,38.63
2018-02-12T03:56:02.908Z,38.60
2018-02-12T03:57:03.378Z,38.61
2018-02-12T03:58:04.045Z,38.59
2018-02-12T03:59:04.309Z,38.57
2018-02-12T04:00:04.771Z,38.56
2018-02-12T04:01:16.572Z,38.53
2018-02-12T04:02:05.712Z,38.50
2018-02-12T04:04:06.640Z,38.47
2018-02-12T04:05:07.104Z,38.44
2018-02-12T04:06:07.573Z,38.43
2018-02-12T04:07:08.032Z,38.45
2018-02-12T04:08:08.506Z,38.44
2018-02-12T04:09:08.968Z,38.44
2018-02-12T04:10:09.436Z,38.41
2018-02-12T04:12:10.366Z,38.36
2018-02-12T04:13:10.833Z,38.33
2018-02-12T04:16:12.229Z,38.31
2018-02-12T04:17:12.694Z,38.34
2018-02-12T04:18:13.157Z,38.32
2018-02-12T04:19:13.624Z,38.32
2018-02-12T04:20:14.090Z,38.37
2018-02-12T04:21:14.556Z,38.35
2018-02-12T04:22:15.022Z,38.37
2018-02-12T04:23:15.487Z,38.36
2018-02-12T04:24:15.953Z,38.39
2018-02-12T04:25:16.419Z,38.41
2018-02-12T04:26:16.935Z,38.42
2018-02-12T04:28:17.814Z,38.48
2018-02-12T04:29:18.282Z,38.50
2018-02-12T04:30:18.747Z,38.48
2018-02-12T04:31:19.270Z,38.53
2018-02-12T04:32:19.674Z,38.56
2018-02-12T04:33:20.145Z,38.59
2018-02-12T04:34:20.609Z,38.58
2018-02-12T04:35:21.076Z,38.61
2018-02-12T04:36:21.536Z,38.59
2018-02-12T04:37:22.005Z,38.59
2018-02-12T04:38:22.472Z,38.60
2018-02-12T04:39:22.946Z,38.61
2018-02-12T04:40:23.404Z,38.59
2018-02-12T04:41:23.869Z,38.59
2018-02-12T04:42:24.335Z,38.57
2018-02-12T04:43:24.798Z,38.61
2018-02-12T04:44:25.266Z,38.61
2018-02-12T04:45:25.736Z,38.60
2018-02-12T04:46:26.198Z,38.59
2018-02-12T04:47:26.664Z,38.57
2018-02-12T04:48:27.125Z,38.57
2018-02-12T04:49:27.592Z,38.56
2018-02-12T04:50:28.059Z,38.52
2018-02-12T04:52:28.990Z,38.52
2018-02-12T04:54:29.917Z,38.46
2018-02-12T04:55:30.386Z,38.45
2018-02-12T04:56:30.902Z,38.37
2018-02-12T04:57:31.318Z,38.30
2018-02-12T04:58:31.779Z,38.26
2018-02-12T04:59:32.249Z,38.26
2018-02-12T05:00:32.713Z,38.26
2018-02-12T05:01:33.178Z,38.26
2018-02-12T05:03:34.111Z,38.24
2018-02-12T05:04:34.572Z,38.20
2018-02-12T05:05:35.042Z,38.18
2018-02-12T05:06:47.647Z,38.18
2018-02-12T05:07:35.972Z,38.16
2018-02-12T05:08:36.440Z,38.14
2018-02-12T05:10:37.366Z,38.18
2018-02-12T05:11:37.885Z,38.14
2018-02-12T05:12:38.304Z,38.13
2018-02-12T05:13:38.765Z,38.10
2018-02-12T05:14:39.231Z,38.09
2018-02-12T05:15:39.695Z,38.05
2018-02-12T05:16:40.159Z,38.07
2018-02-12T05:17:40.627Z,38.07
2018-02-12T05:18:41.093Z,38.08
2018-02-12T05:19:41.556Z,38.08
2018-02-12T05:20:42.021Z,38.11
2018-02-12T05:21:42.490Z,38.06
2018-02-12T05:23:43.422Z,38.14
2018-02-12T05:24:43.885Z,38.12
2018-02-12T05:25:44.346Z,38.16
2018-02-12T05:26:56.654Z,38.16
2018-02-12T05:27:45.281Z,38.13
2018-02-12T05:28:45.748Z,38.16
2018-02-12T05:29:46.211Z,38.17
2018-02-12T05:30:46.677Z,38.18
2018-02-12T05:31:58.676Z,38.19
2018-02-12T05:32:47.604Z,38.22
2018-02-12T05:33:48.074Z,38.25
2018-02-12T05:34:48.539Z,38.27
2018-02-12T05:35:49.004Z,38.30
2018-02-12T05:36:49.522Z,38.29
2018-02-12T05:37:49.935Z,38.28
2018-02-12T05:38:50.395Z,38.28
2018-02-12T05:39:50.866Z,38.23
2018-02-12T05:40:51.331Z,38.19
2018-02-12T05:41:51.850Z,38.19
2018-02-12T05:42:52.262Z,38.24
2018-02-12T05:43:52.727Z,38.26
2018-02-12T05:44:53.193Z,38.27
2018-02-12T05:45:53.658Z,38.30
2018-02-12T05:46:54.177Z,38.29
2018-02-12T05:47:54.588Z,38.34
2018-02-12T05:48:55.051Z,38.34
2018-02-12T05:49:55.520Z,38.31
2018-02-12T05:50:55.983Z,38.30
2018-02-12T05:51:56.500Z,38.33
2018-02-12T05:52:56.915Z,38.33
2018-02-12T05:53:57.380Z,38.29
2018-02-12T05:54:57.846Z,38.29
2018-02-12T05:56:58.827Z,38.29
2018-02-12T05:57:59.240Z,38.30
2018-02-12T05:58:59.707Z,38.26
2018-02-12T06:00:00.369Z,38.23
2018-02-12T06:01:00.637Z,38.16
2018-02-12T06:02:01.153Z,38.15
2018-02-12T06:03:01.563Z,38.16
2018-02-12T06:04:02.033Z,38.14
2018-02-12T06:05:02.497Z,38.13
2018-02-12T06:06:02.958Z,38.13
2018-02-12T06:07:03.479Z,38.14
2018-02-12T06:08:03.895Z,38.16
2018-02-12T06:09:04.359Z,38.18
2018-02-12T06:10:04.824Z,38.24
2018-02-12T06:11:05.291Z,38.30
2018-02-12T06:12:05.804Z,38.37
2018-02-12T06:13:06.221Z,38.45
2018-02-12T06:14:06.686Z,38.56
2018-02-12T06:16:07.615Z,38.68
2018-02-12T06:18:08.579Z,38.81
2018-02-12T06:19:09.012Z,38.85
2018-02-12T06:20:09.475Z,38.91
2018-02-12T06:21:09.941Z,38.94
2018-02-12T06:22:10.405Z,38.96
2018-02-12T06:23:10.871Z,38.98
2018-02-12T06:24:11.344Z,39.01
2018-02-12T06:25:11.801Z,39.04
2018-02-12T06:26:12.266Z,39.06
2018-02-12T06:27:24.732Z,39.07
2018-02-12T06:28:13.199Z,39.08
2018-02-12T06:29:13.658Z,39.05
2018-02-12T06:30:14.127Z,39.04
2018-02-12T06:31:14.592Z,39.02
2018-02-12T06:32:15.107Z,39.02
2018-02-12T06:33:15.521Z,39.00
2018-02-12T06:34:15.984Z,39.00
2018-02-12T06:35:16.451Z,39.00
2018-02-12T06:36:16.917Z,39.02
2018-02-12T06:37:28.716Z,39.05
2018-02-12T06:38:17.850Z,39.06
2018-02-12T06:39:18.313Z,39.08
2018-02-12T06:40:18.787Z,39.09
2018-02-12T06:41:19.238Z,39.10
2018-02-12T06:44:20.638Z,39.19
2018-02-12T06:45:21.104Z,39.20
2018-02-12T06:46:21.572Z,39.20
2018-02-12T06:47:22.037Z,39.23
2018-02-12T06:48:22.499Z,39.26
2018-02-12T06:49:22.959Z,39.25
2018-02-12T06:50:23.430Z,39.20
2018-02-12T06:51:23.895Z,39.23
2018-02-12T06:52:24.409Z,39.25
2018-02-12T06:53:24.824Z,39.27
2018-02-12T06:54:25.285Z,39.32
2018-02-12T06:55:25.756Z,39.33
2018-02-12T06:56:26.257Z,39.34
2018-02-12T06:58:27.152Z,39.32
2018-02-12T06:59:27.616Z,39.33
2018-02-12T07:00:28.076Z,39.32
2018-02-12T07:01:28.546Z,39.32
2018-02-12T07:03:29.526Z,39.26
2018-02-12T07:04:29.936Z,39.32
2018-02-12T07:05:30.410Z,39.37
2018-02-12T07:06:30.872Z,39.42
2018-02-12T07:07:31.342Z,39.45
2018-02-12T07:08:31.801Z,39.49
2018-02-12T07:09:32.270Z,39.51
2018-02-12T07:10:32.735Z,39.59
2018-02-12T07:11:33.198Z,39.58
2018-02-12T07:12:33.662Z,39.60
2018-02-12T07:13:34.125Z,39.61
2018-02-12T07:14:34.593Z,39.65
2018-02-12T07:15:35.061Z,39.70
2018-02-12T07:16:35.523Z,39.73
2018-02-12T07:17:35.983Z,39.76
2018-02-12T07:18:36.503Z,39.80
2018-02-12T07:19:36.918Z,39.84
2018-02-12T07:20:37.384Z,39.84
2018-02-12T07:21:37.844Z,39.87
2018-02-12T07:23:38.831Z,39.89
2018-02-12T07:24:39.243Z,39.93
2018-02-12T07:26:40.173Z,39.96
2018-02-12T07:27:40.640Z,39.97
2018-02-12T07:29:41.568Z,40.04
2018-02-12T07:30:42.037Z,40.04
2018-02-12T07:31:42.500Z,40.12
2018-02-12T07:32:42.966Z,40.15
2018-02-12T07:33:43.480Z,40.16
2018-02-12T07:34:43.890Z,40.20
2018-02-12T07:35:44.359Z,40.22
2018-02-12T07:36:44.828Z,40.24
2018-02-12T07:37:45.289Z,40.29
2018-02-12T07:38:45.805Z,40.29
2018-02-12T07:39:46.220Z,40.30
2018-02-12T07:40:46.687Z,40.28
2018-02-12T07:41:47.150Z,40.29
2018-02-12T07:42:47.653Z,40.30
2018-02-12T07:43:48.081Z,40.32
2018-02-12T07:44:48.549Z,40.35
2018-02-12T07:45:49.010Z,40.37
2018-02-12T07:46:49.470Z,40.40
2018-02-12T07:47:49.939Z,40.42
2018-02-12T07:48:50.454Z,40.43
2018-02-12T07:50:51.335Z,40.44
2018-02-12T07:51:51.800Z,40.43
2018-02-12T07:52:52.259Z,40.43
2018-02-12T07:53:52.824Z,40.47
2018-02-12T07:54:53.196Z,40.48
2018-02-12T07:55:53.662Z,40.46
2018-02-12T07:56:54.124Z,40.43
2018-02-12T07:57:54.592Z,40.42
2018-02-12T07:58:55.102Z,40.46
2018-02-12T07:59:55.521Z,40.44
2018-02-12T08:00:56.326Z,40.46
2018-02-12T08:01:56.454Z,40.46
2018-02-12T08:02:56.912Z,40.47
2018-02-12T08:03:57.383Z,40.50
2018-02-12T08:04:57.845Z,40.52
2018-02-12T08:05:58.313Z,40.52
2018-02-12T08:06:58.778Z,40.51
2018-02-12T08:07:59.244Z,40.49
2018-02-12T08:08:59.706Z,40.49
2018-02-12T08:10:00.171Z,40.50
2018-02-12T08:11:00.637Z,40.48
2018-02-12T08:12:01.126Z,40.45
2018-02-12T08:13:01.566Z,40.43
2018-02-12T08:15:02.493Z,40.42
2018-02-12T08:16:03.011Z,40.47
2018-02-12T08:17:03.427Z,40.53
2018-02-12T08:18:03.892Z,40.52
2018-02-12T08:20:04.817Z,40.52
2018-02-12T08:21:05.286Z,40.52
2018-02-12T08:22:05.752Z,40.54
2018-02-12T08:23:06.221Z,40.57
2018-02-12T08:24:06.735Z,40.56
2018-02-12T08:25:07.152Z,40.59
2018-02-12T08:26:07.612Z,40.66
2018-02-12T08:27:08.075Z,40.66
2018-02-12T08:28:08.543Z,40.70
2018-02-12T08:29:09.012Z,40.70
2018-02-12T08:30:09.476Z,40.70
2018-02-12T08:31:09.944Z,40.72
2018-02-12T08:32:10.405Z,40.73
2018-02-12T08:33:10.870Z,40.71
2018-02-12T08:34:11.388Z,40.69
2018-02-12T08:35:11.801Z,40.68
2018-02-12T08:36:12.262Z,40.69
2018-02-12T08:37:12.733Z,40.65
2018-02-12T08:38:13.197Z,40.65
2018-02-12T08:39:13.711Z,40.65
2018-02-12T08:40:14.127Z,40.65
2018-02-12T08:41:14.591Z,40.70
2018-02-12T08:42:15.058Z,40.65
2018-02-12T08:43:15.523Z,40.61
2018-02-12T08:44:16.035Z,40.59
2018-02-12T08:45:16.454Z,40.57
2018-02-12T08:46:17.259Z,40.59
2018-02-12T08:47:17.384Z,40.60
2018-02-12T08:48:17.849Z,40.64
2018-02-12T08:49:18.364Z,40.66
2018-02-12T08:50:18.816Z,40.69
2018-02-12T08:51:19.247Z,40.69
2018-02-12T08:52:19.713Z,40.67
2018-02-12T08:53:20.175Z,40.63
2018-02-12T08:54:20.637Z,40.61
2018-02-12T08:55:21.106Z,40.62
2018-02-12T08:56:21.576Z,40.63
2018-02-12T08:57:22.036Z,40.67
2018-02-12T08:58:22.500Z,40.68
2018-02-12T08:59:22.968Z,40.69
2018-02-12T09:00:23.429Z,40.69
2018-02-12T09:01:23.898Z,40.70
2018-02-12T09:02:24.376Z,40.71
2018-02-12T09:03:24.837Z,40.72
2018-02-12T09:04:25.304Z,40.70
2018-02-12T09:05:25.769Z,40.72
2018-02-12T09:06:26.237Z,40.68
2018-02-12T09:07:26.700Z,40.69
2018-02-12T09:08:27.158Z,40.68
2018-02-12T09:09:27.672Z,40.68
2018-02-12T09:10:28.088Z,40.69
2018-02-12T09:11:28.554Z,40.67
2018-02-12T09:12:29.019Z,40.68
2018-02-12T09:13:29.485Z,40.67
2018-02-12T09:14:29.996Z,40.66
2018-02-12T09:15:30.416Z,40.66
2018-02-12T09:16:30.910Z,40.66
2018-02-12T09:17:31.346Z,40.65
2018-02-12T09:18:31.820Z,40.65
2018-02-12T09:19:32.280Z,40.66
2018-02-12T09:20:32.748Z,40.66
2018-02-12T09:21:33.204Z,40.64
2018-02-12T09:22:33.718Z,40.63
2018-02-12T09:23:34.140Z,40.61
2018-02-12T09:24:34.658Z,40.57
2018-02-12T09:25:35.067Z,40.58
2018-02-12T09:27:36.008Z,40.61
2018-02-12T09:28:36.469Z,40.60
2018-02-12T09:29:36.987Z,40.62
2018-02-12T09:30:37.395Z,40.65
2018-02-12T09:33:38.798Z,40.72
2018-02-12T09:34:39.263Z,40.71
2018-02-12T09:35:39.728Z,40.75
2018-02-12T09:37:40.654Z,40.78
2018-02-12T09:38:41.126Z,40.77
2018-02-12T09:39:41.645Z,40.78
2018-02-12T09:40:42.057Z,40.81
2018-02-12T09:41:42.519Z,40.80
2018-02-12T09:42:42.988Z,40.79
2018-02-12T09:43:43.456Z,40.80
2018-02-12T09:44:43.978Z,40.85
2018-02-12T09:45:44.386Z,40.88
2018-02-12T09:46:44.850Z,40.86
2018-02-12T09:47:45.317Z,40.88
2018-02-12T09:48:45.778Z,40.90
2018-02-12T09:49:46.298Z,40.93
2018-02-12T09:51:47.179Z,40.94
2018-02-12T09:52:47.646Z,40.93
2018-02-12T09:53:48.110Z,40.91
2018-02-12T09:54:48.573Z,40.91
2018-02-12T09:55:49.048Z,40.94
2018-02-12T09:56:49.510Z,40.97
2018-02-12T09:57:49.974Z,40.98
2018-02-12T09:58:50.440Z,40.98
2018-02-12T09:59:50.957Z,40.94
2018-02-12T10:00:51.372Z,40.90
2018-02-12T10:01:51.835Z,40.84
2018-02-12T10:02:52.303Z,40.77
2018-02-12T10:03:52.772Z,40.73
2018-02-12T10:04:53.285Z,40.67
2018-02-12T10:05:53.700Z,40.63
2018-02-12T10:06:54.172Z,40.55
2018-02-12T10:07:54.627Z,40.52
2018-02-12T10:08:55.100Z,40.47
2018-02-12T10:09:55.564Z,40.44
2018-02-12T10:10:56.032Z,40.43
2018-02-12T10:11:56.492Z,40.40
2018-02-12T10:12:56.965Z,40.43
2018-02-12T10:13:57.429Z,40.48
2018-02-12T10:15:09.935Z,40.47
2018-02-12T10:15:58.361Z,40.53
2018-02-12T10:16:58.828Z,40.50
2018-02-12T10:17:59.294Z,40.51
2018-02-12T10:18:59.756Z,40.48
2018-02-12T10:20:00.264Z,40.44
2018-02-12T10:21:00.693Z,40.42
2018-02-12T10:22:01.157Z,40.40
2018-02-12T10:23:03.973Z,40.33
2018-02-12T10:24:02.092Z,40.36
2018-02-12T10:25:02.557Z,40.35
2018-02-12T10:26:03.023Z,40.31
2018-02-12T10:27:03.490Z,40.30
2018-02-12T10:28:03.957Z,40.32
2018-02-12T10:29:04.422Z,40.27
2018-02-12T10:30:04.882Z,40.25
2018-02-12T10:31:05.697Z,40.28
2018-02-12T10:32:05.821Z,40.25
2018-02-12T10:34:06.753Z,40.22
2018-02-12T10:35:07.271Z,40.20
2018-02-12T10:36:07.686Z,40.19
2018-02-12T10:37:08.156Z,40.21
2018-02-12T10:38:08.620Z,40.19
2018-02-12T10:40:09.603Z,40.13
2018-02-12T10:41:10.017Z,40.10
2018-02-12T10:42:10.485Z,40.09
2018-02-12T10:43:10.952Z,40.07
2018-02-12T10:44:11.419Z,40.05
2018-02-12T10:45:11.885Z,40.03
2018-02-12T10:46:12.351Z,40.01
2018-02-12T10:47:12.819Z,39.99
2018-02-12T10:48:13.281Z,39.93
2018-02-12T10:49:13.752Z,39.90
2018-02-12T10:50:14.217Z,39.87
2018-02-12T10:51:14.684Z,39.81
2018-02-12T10:52:15.489Z,39.76
2018-02-12T10:53:15.618Z,39.66
2018-02-12T10:54:16.085Z,39.61
2018-02-12T10:56:17.018Z,39.53
2018-02-12T10:57:17.487Z,39.41
2018-02-12T10:58:17.950Z,39.38
2018-02-12T10:59:18.413Z,39.36
2018-02-12T11:00:18.885Z,39.36
2018-02-12T11:02:19.817Z,39.32
2018-02-12T11:03:20.280Z,39.30
2018-02-12T11:04:20.750Z,39.29
2018-02-12T11:05:21.218Z,39.24
2018-02-12T11:07:22.195Z,39.20
2018-02-12T11:08:22.624Z,39.18
2018-02-12T11:09:23.087Z,39.12
2018-02-12T11:10:23.552Z,39.07
2018-02-12T11:11:24.020Z,39.04
2018-02-12T11:12:24.513Z,38.99
2018-02-12T11:13:24.954Z,38.97
2018-02-12T11:14:25.419Z,38.93
2018-02-12T11:15:25.881Z,38.89
2018-02-12T11:16:26.354Z,38.83
2018-02-12T11:17:26.873Z,38.83
2018-02-12T11:18:27.288Z,38.84
2018-02-12T11:19:27.755Z,38.84
2018-02-12T11:20:28.219Z,38.80
2018-02-12T11:21:28.689Z,38.82
2018-02-12T11:22:29.206Z,38.85
2018-02-12T11:23:29.623Z,38.86
2018-02-12T11:24:30.091Z,38.84
2018-02-12T11:25:30.557Z,38.83
2018-02-12T11:26:31.022Z,38.84
2018-02-12T11:27:31.489Z,38.87
2018-02-12T11:28:31.959Z,38.85
2018-02-12T11:29:32.421Z,38.82
2018-02-12T11:30:32.891Z,38.84
2018-02-12T11:31:33.359Z,38.83
2018-02-12T11:32:33.827Z,38.81
2018-02-12T11:33:34.297Z,38.81
2018-02-12T11:35:35.228Z,38.82
2018-02-12T11:36:35.690Z,38.83
2018-02-12T11:37:47.996Z,38.79
2018-02-12T11:38:36.631Z,38.77
2018-02-12T11:39:37.092Z,38.75
2018-02-12T11:40:37.564Z,38.71
2018-02-12T11:41:38.031Z,38.68
2018-02-12T11:42:38.548Z,38.67
2018-02-12T11:43:38.965Z,38.70
2018-02-12T11:44:39.434Z,38.69
2018-02-12T11:45:39.901Z,38.68
2018-02-12T11:46:40.367Z,38.70
2018-02-12T11:47:40.837Z,38.71
2018-02-12T11:48:41.301Z,38.70
2018-02-12T11:49:41.770Z,38.72
2018-02-12T11:50:42.231Z,38.74
2018-02-12T11:51:42.704Z,38.74
2018-02-12T11:53:43.639Z,38.72
2018-02-12T11:54:44.105Z,38.72
2018-02-12T11:55:44.573Z,38.70
2018-02-12T11:56:45.041Z,38.69
2018-02-12T11:57:57.013Z,38.65
2018-02-12T11:58:45.971Z,38.65
2018-02-12T11:59:46.443Z,38.67
2018-02-12T12:00:46.910Z,38.66
2018-02-12T12:01:47.378Z,38.66
2018-02-12T12:02:47.896Z,38.67
2018-02-12T12:04:48.780Z,38.70
2018-02-12T12:05:49.244Z,38.70
2018-02-12T12:06:49.715Z,38.70
2018-02-12T12:08:02.023Z,38.72
2018-02-12T12:08:50.650Z,38.72
2018-02-12T12:09:51.114Z,38.77
2018-02-12T12:11:52.053Z,38.82
2018-02-12T12:13:52.992Z,38.85
2018-02-12T12:14:53.455Z,38.86
2018-02-12T12:15:53.936Z,38.86
2018-02-12T12:16:54.387Z,38.88
2018-02-12T12:17:54.858Z,38.90
2018-02-12T12:18:55.324Z,38.95
2018-02-12T12:19:55.793Z,38.97
2018-02-12T12:20:56.255Z,39.02
2018-02-12T12:21:56.727Z,39.01
2018-02-12T12:22:57.194Z,39.02
2018-02-12T12:23:57.712Z,39.05
2018-02-12T12:24:58.130Z,39.09
2018-02-12T12:25:58.597Z,39.10
2018-02-12T12:26:59.059Z,39.12
2018-02-12T12:27:59.533Z,39.16
2018-02-12T12:29:00.051Z,39.15
2018-02-12T12:31:00.929Z,39.22
2018-02-12T12:32:01.402Z,39.20
2018-02-12T12:33:01.871Z,39.23
2018-02-12T12:35:02.801Z,39.26
2018-02-12T12:36:03.268Z,39.27
2018-02-12T12:37:03.741Z,39.27
2018-02-12T12:38:04.208Z,39.28
2018-02-12T12:39:04.727Z,39.30
2018-02-12T12:40:05.138Z,39.37
2018-02-12T12:43:06.555Z,39.39
2018-02-12T12:44:07.063Z,39.39
2018-02-12T12:45:07.484Z,39.41
2018-02-12T12:46:07.951Z,39.46
2018-02-12T12:47:08.411Z,39.43
2018-02-12T12:48:08.886Z,39.43
2018-02-12T12:49:09.352Z,39.45
2018-02-12T12:50:09.819Z,39.49
2018-02-12T12:51:10.287Z,39.48
2018-02-12T12:52:10.756Z,39.49
2018-02-12T12:53:11.223Z,39.48
2018-02-12T12:54:11.688Z,39.47
2018-02-12T12:55:12.157Z,39.50
2018-02-12T12:56:12.966Z,39.50
2018-02-12T12:57:13.093Z,39.56
2018-02-12T12:58:13.563Z,39.55
2018-02-12T12:59:14.031Z,39.59
2018-02-12T13:00:14.497Z,39.61
2018-02-12T13:01:14.961Z,39.66
2018-02-12T13:02:15.433Z,39.66
2018-02-12T13:03:15.899Z,39.68
2018-02-12T13:04:16.419Z,39.69
2018-02-12T13:05:16.836Z,39.71
2018-02-12T13:06:17.353Z,39.72
2018-02-12T13:07:17.770Z,39.75
2018-02-12T13:08:18.240Z,39.74
2018-02-12T13:09:18.706Z,39.77
2018-02-12T13:10:19.170Z,39.76
2018-02-12T13:11:19.642Z,39.79
2018-02-12T13:13:20.577Z,39.81
2018-02-12T13:14:21.097Z,39.78
2018-02-12T13:15:21.513Z,39.76
2018-02-12T13:16:21.981Z,39.75
2018-02-12T13:17:22.449Z,39.75
2018-02-12T13:18:22.913Z,39.77
2018-02-12T13:19:23.434Z,39.80
2018-02-12T13:20:23.852Z,39.79
2018-02-12T13:21:24.321Z,39.80
2018-02-12T13:22:24.788Z,39.82
2018-02-12T13:23:25.256Z,39.82
2018-02-12T13:24:37.107Z,39.81
2018-02-12T13:25:26.189Z,39.81
2018-02-12T13:26:26.660Z,39.83
2018-02-12T13:27:27.128Z,39.84
2018-02-12T13:28:27.596Z,39.85
2018-02-12T13:29:28.115Z,39.85
2018-02-12T13:30:28.528Z,39.86
2018-02-12T13:32:29.466Z,39.87
2018-02-12T13:33:29.937Z,39.91
2018-02-12T13:34:30.451Z,39.90
2018-02-12T13:36:31.339Z,39.90
2018-02-12T13:37:31.808Z,39.91
2018-02-12T13:38:32.275Z,39.91
2018-02-12T13:39:32.743Z,39.93
2018-02-12T13:41:33.675Z,39.90
2018-02-12T13:42:34.147Z,39.93
2018-02-12T13:43:34.615Z,39.92
2018-02-12T13:45:35.602Z,39.95
2018-02-12T13:46:36.019Z,39.93
2018-02-12T13:47:36.488Z,39.93
2018-02-12T13:48:36.952Z,39.90
2018-02-12T13:49:37.424Z,39.94
2018-02-12T13:50:37.943Z,39.95
2018-02-12T13:51:38.359Z,39.94
2018-02-12T13:52:38.826Z,39.96
2018-02-12T13:53:39.300Z,39.97
2018-02-12T13:54:39.765Z,39.98
2018-02-12T13:55:40.284Z,40.01
2018-02-12T13:56:40.702Z,40.06
2018-02-12T13:57:41.171Z,40.07
2018-02-12T13:58:41.638Z,40.09
2018-02-12T13:59:42.105Z,40.09
2018-02-12T14:01:43.045Z,40.17
2018-02-12T14:02:43.511Z,40.21
2018-02-12T14:03:43.978Z,40.18
2018-02-12T14:04:44.447Z,40.18
2018-02-12T14:05:44.914Z,40.15
2018-02-12T14:06:45.383Z,40.13
2018-02-12T14:07:45.849Z,40.11
2018-02-12T14:08:46.319Z,40.12
2018-02-12T14:09:46.787Z,40.11
2018-02-12T14:10:47.306Z,40.12